Terminal Aerodrome Forecast
Issued by NWS

Home | Current Version | Previous Version | Text Only | Print | Product List | Glossary On
Versions: 1 2 3 4 5 6 7 8 9 10 11 12 13 14 15
000
FTAK31 PANC 310532
TAFAVD
TAF
PAVD 310532Z 3106/0106 VRB03KT P6SM FEW020 SCT035 SCT070
     FM312100 25008KT P6SM FEW045 SCT200
     FM010000 27012KT P6SM FEW045 SCT100 BKN200
      AMD LTD TO CLD VIS AND WIND=

USA.gov is the U.S. government's official web portal to all federal, state and local government web resources and services.